Latest Weather Observations for Ocean Reef

IDW60801

Issued at 7:03 pm WST Monday 22 December 2014 (issued every 30 minutes, with the page automatically refreshed every 10 minutes)

About weather observations | Map of weather stations | Latest weather observations for WA | Other Formats
Station Details ID: 009214 Name: OCEAN REEF Lat: -31.76 Lon: 115.73 Height: 10.0 m
Data from the previous 72 hours. | See also: Recent months for locations in Western Australia
Date/Time
WST
Temp
°C
App
Temp
°C
Dew
Point
Rel
Hum
%
Delta-T
°C
Wind Press
QNH
hPa
Press
MSL
hPa
Rain
since 9 am
mm
Dir
 
Spd
km/h
Gust
km/h
Spd
kts
Gust
kts
22/07:00pm - - - - - S 44 54 24 29 - - -
22/06:30pm - - - - - S 43 50 23 27 - - -
22/06:00pm - - - - - S 46 54 25 29 - - -
22/05:30pm - - - - - S 43 54 23 29 - - -
22/05:00pm - - - - - S 46 56 25 30 - - -
22/04:30pm - - - - - SSW 44 52 24 28 - - -
22/04:00pm - - - - - S 41 50 22 27 - - -
22/03:30pm - - - - - SSW 41 48 22 26 - - -
22/03:00pm - - - - - SSW 37 48 20 26 - - -
22/02:30pm - - - - - SSW 37 48 20 26 - - -
22/02:00pm - - - - - SSW 37 43 20 23 - - -
22/01:30pm - - - - - SSW 39 48 21 26 - - -
22/01:00pm - - - - - SSW 37 41 20 22 - - -
22/10:30am - - - - - SSW 32 37 17 20 - - -
22/10:00am - - - - - SSW 26 30 14 16 - - -
22/09:30am - - - - - SW 13 22 7 12 - - -
22/09:00am - - - - - NE 9 15 5 8 - - -
22/08:30am - - - - - E 17 24 9 13 - - -
22/08:00am - - - - - ENE 20 30 11 16 - - -
22/07:30am - - - - - E 20 35 11 19 - - -
22/07:00am - - - - - E 20 32 11 17 - - -
22/06:30am - - - - - E 22 32 12 17 - - -
22/06:00am - - - - - E 22 33 12 18 - - -
22/05:30am - - - - - ENE 20 32 11 17 - - -
22/05:00am - - - - - ENE 20 32 11 17 - - -
22/04:30am - - - - - E 20 32 11 17 - - -
22/04:00am - - - - - E 17 26 9 14 - - -
22/03:30am - - - - - E 20 28 11 15 - - -
22/03:00am - - - - - E 17 26 9 14 - - -
22/02:30am - - - - - E 19 28 10 15 - - -
22/02:00am - - - - - E 17 24 9 13 - - -
22/01:30am - - - - - E 19 26 10 14 - - -
22/01:00am - - - - - ESE 17 26 9 14 - - -
22/12:30am - - - - - ESE 13 17 7 9 - - -
22/12:00am - - - - - SE 13 15 7 8 - - -
 
Date/Time
WST
Temp
°C
App
Temp
°C
Dew
Point
Rel
Hum
%
Delta-T
°C
Wind Press
QNH
hPa
Press
MSL
hPa
Rain
since 9 am
mm
Dir
 
Spd
km/h
Gust
km/h
Spd
kts
Gust
kts
21/11:30pm - - - - - SE 11 15 6 8 - - -
21/11:00pm - - - - - SSE 15 17 8 9 - - -
21/10:30pm - - - - - SSE 13 17 7 9 - - -
21/10:00pm - - - - - SE 15 19 8 10 - - -
21/09:30pm - - - - - S 30 43 16 23 - - -
21/09:00pm - - - - - S 37 44 20 24 - - -
21/08:30pm - - - - - S 39 48 21 26 - - -
21/08:00pm - - - - - S 37 46 20 25 - - -
21/07:30pm - - - - - S 39 50 21 27 - - -
21/07:00pm - - - - - S 39 50 21 27 - - -
21/06:30pm - - - - - S 41 50 22 27 - - -
21/06:00pm - - - - - S 39 52 21 28 - - -
21/05:30pm - - - - - S 41 50 22 27 - - -
21/05:00pm - - - - - SSW 43 52 23 28 - - -
21/04:30pm - - - - - S 43 52 23 28 - - -
21/04:00pm - - - - - SSW 43 54 23 29 - - -
21/03:30pm - - - - - SSW 39 48 21 26 - - -
21/03:00pm - - - - - SSW 39 46 21 25 - - -
21/02:30pm - - - - - SSW 39 50 21 27 - - -
21/02:00pm - - - - - SSW 41 50 22 27 - - -
21/01:30pm - - - - - SSW 37 48 20 26 - - -
21/01:00pm - - - - - SSW 35 43 19 23 - - -
21/12:30pm - - - - - SSW 35 43 19 23 - - -
21/12:00pm - - - - - SSW 33 41 18 22 - - -
21/11:30am - - - - - SSW 32 37 17 20 - - -
21/11:00am - - - - - SSW 32 37 17 20 - - -
21/10:30am - - - - - SW 28 32 15 17 - - -
21/10:00am - - - - - SE 17 28 9 15 - - -
21/09:30am - - - - - SSE 17 35 9 19 - - -
21/09:00am - - - - - SSE 19 26 10 14 - - -
21/08:30am - - - - - SE 22 32 12 17 - - -
21/08:00am - - - - - SE 20 28 11 15 - - -
21/07:30am - - - - - SSE 22 32 12 17 - - -
21/07:00am - - - - - SSE 22 32 12 17 - - -
21/06:30am - - - - - SSE 20 28 11 15 - - -
21/06:00am - - - - - SSE 22 26 12 14 - - -
21/05:30am - - - - - SSE 20 30 11 16 - - -
21/05:00am - - - - - SSE 15 17 8 9 - - -
21/04:30am - - - - - SSE 11 15 6 8 - - -
21/04:00am - - - - - SSE 11 13 6 7 - - -
21/03:30am - - - - - SSE 13 19 7 10 - - -
21/03:00am - - - - - SE 15 20 8 11 - - -
21/02:30am - - - - - SE 20 30 11 16 - - -
21/02:00am - - - - - SE 24 37 13 20 - - -
21/01:30am - - - - - SE 24 37 13 20 - - -
21/01:00am - - - - - SSE 22 32 12 17 - - -
21/12:30am - - - - - SSE 26 35 14 19 - - -
21/12:00am - - - - - SSE 22 30 12 16 - - -
 
Date/Time
WST
Temp
°C
App
Temp
°C
Dew
Point
Rel
Hum
%
Delta-T
°C
Wind Press
QNH
hPa
Press
MSL
hPa
Rain
since 9 am
mm
Dir
 
Spd
km/h
Gust
km/h
Spd
kts
Gust
kts
20/11:30pm - - - - - SSE 26 41 14 22 - - -
20/11:00pm - - - - - SSE 17 30 9 16 - - -
20/10:30pm - - - - - SSE 17 22 9 12 - - -
20/10:00pm - - - - - SSE 24 33 13 18 - - -
20/09:30pm - - - - - SSE 20 28 11 15 - - -
20/09:00pm - - - - - SSE 17 26 9 14 - - -
20/08:30pm - - - - - S 28 37 15 20 - - -
20/08:00pm - - - - - S 35 43 19 23 - - -
20/07:30pm - - - - - S 43 52 23 28 - - -
20/07:00pm - - - - - S 44 56 24 30 - - -
20/06:30pm - - - - - S 46 57 25 31 - - -
20/06:00pm - - - - - S 50 63 27 34 - - -
20/05:30pm - - - - - SSW 46 57 25 31 - - -
20/05:00pm - - - - - SSW 48 57 26 31 - - -
20/04:30pm - - - - - SSW 46 57 25 31 - - -
20/04:00pm - - - - - SSW 39 48 21 26 - - -
20/03:30pm - - - - - SSW 41 50 22 27 - - -
20/03:00pm - - - - - SSW 39 50 21 27 - - -
20/02:30pm - - - - - SW 37 48 20 26 - - -
20/02:00pm - - - - - SW 39 48 21 26 - - -
20/01:30pm - - - - - SW 41 50 22 27 - - -
20/01:00pm - - - - - SSW 41 50 22 27 - - -
20/12:30pm - - - - - SSW 39 48 21 26 - - -
20/12:00pm - - - - - SW 37 46 20 25 - - -
20/11:30am - - - - - SSW 39 50 21 27 - - -
20/11:00am - - - - - SSW 41 52 22 28 - - -
20/10:30am - - - - - SSW 39 50 21 27 - - -
20/10:00am - - - - - SSW 37 44 20 24 - - -
20/09:30am - - - - - SSW 37 48 20 26 - - -
20/09:00am - - - - - SSW 37 44 20 24 - - -
20/08:30am - - - - - SSW 35 43 19 23 - - -
20/08:00am - - - - - SSW 37 44 20 24 - - -
20/07:30am - - - - - SSW 35 44 19 24 - - -
20/07:00am - - - - - SSW 39 48 21 26 - - -
20/06:30am - - - - - SSW 33 41 18 22 - - -
20/06:00am - - - - - SSW 32 39 17 21 - - -
20/05:30am - - - - - SSW 24 32 13 17 - - -
20/05:00am - - - - - SSW 17 20 9 11 - - -
20/04:30am - - - - - SSW 17 22 9 12 - - -
20/04:00am - - - - - SSW 13 17 7 9 - - -
20/03:30am - - - - - SSW 15 17 8 9 - - -
20/03:00am - - - - - SSW 11 15 6 8 - - -
20/02:30am - - - - - WSW 7 15 4 8 - - -
20/02:00am - - - - - WNW 2 6 1 3 - - -
20/01:30am - - - - - SSE 6 13 3 7 - - -
20/01:00am - - - - - S 15 19 8 10 - - -
20/12:30am - - - - - S 22 32 12 17 - - -
20/12:00am - - - - - S 24 35 13 19 - - -
 
Date/Time
WST
Temp
°C
App
Temp
°C
Dew
Point
Rel
Hum
%
Delta-T
°C
Wind Press
QNH
hPa
Press
MSL
hPa
Rain
since 9 am
mm
Dir
 
Spd
km/h
Gust
km/h
Spd
kts
Gust
kts
19/11:30pm - - - - - S 26 30 14 16 - - -
19/11:00pm - - - - - S 28 33 15 18 - - -
19/10:30pm - - - - - SSW 19 26 10 14 - - -
19/10:00pm - - - - - S 22 30 12 16 - - -
19/09:30pm - - - - - S 26 32 14 17 - - -
19/09:00pm - - - - - S 30 35 16 19 - - -
19/08:30pm - - - - - S 30 37 16 20 - - -
19/08:00pm - - - - - S 32 37 17 20 - - -
19/07:30pm - - - - - S 32 39 17 21 - - -

Other Formats:

Comma delimited format used in spreadsheet applications
http://www.bom.gov.au/fwo/IDW60801/IDW60801.94607.axf

JavaScript Object Notation format (JSON) in row-major order
http://www.bom.gov.au/fwo/IDW60801/IDW60801.94607.json